createdAt,value
2019-03-10T00:02:18.517Z,5.40
2019-03-10T00:04:46.698Z,4.00
2019-03-10T00:07:14.849Z,5.00
2019-03-10T00:09:43.124Z,5.00
2019-03-10T00:12:11.280Z,4.83
2019-03-10T00:14:40.542Z,3.73
2019-03-10T00:17:08.759Z,3.60
2019-03-10T00:19:36.959Z,4.60
2019-03-10T00:22:05.995Z,4.67
2019-03-10T00:24:34.177Z,4.60
2019-03-10T00:27:03.885Z,5.90
2019-03-10T00:29:32.814Z,4.43
2019-03-10T00:32:01.262Z,3.93
2019-03-10T00:34:31.475Z,4.33
2019-03-10T00:36:59.923Z,4.77
2019-03-10T00:39:35.627Z,5.10
2019-03-10T00:42:14.088Z,4.10
2019-03-10T00:45:00.458Z,4.60
2019-03-10T00:47:45.303Z,5.43
2019-03-10T00:50:26.984Z,4.07
2019-03-10T00:52:57.492Z,5.20
2019-03-10T00:55:25.756Z,4.20
2019-03-10T00:57:53.960Z,4.60
2019-03-10T01:00:22.072Z,5.13
2019-03-10T01:02:50.222Z,4.03
2019-03-10T01:05:18.487Z,4.30
2019-03-10T01:07:46.893Z,4.13
2019-03-10T01:10:15.109Z,4.70
2019-03-10T01:12:43.384Z,3.77
2019-03-10T01:15:12.763Z,4.27
2019-03-10T01:17:41.362Z,4.13
2019-03-10T01:20:12.300Z,4.73
2019-03-10T01:22:40.525Z,4.30
2019-03-10T01:25:12.405Z,4.67
2019-03-10T01:27:40.645Z,4.43
2019-03-10T01:30:13.486Z,4.17
2019-03-10T01:32:57.658Z,4.50
2019-03-10T01:35:26.928Z,4.47
2019-03-10T01:37:55.089Z,4.03
2019-03-10T01:40:23.267Z,4.70
2019-03-10T01:42:51.472Z,3.90
2019-03-10T01:45:19.597Z,4.40
2019-03-10T01:47:47.743Z,4.27
2019-03-10T01:50:15.935Z,3.83
2019-03-10T01:52:44.171Z,5.13
2019-03-10T01:55:14.058Z,3.80
2019-03-10T01:57:42.385Z,3.93
2019-03-10T02:00:12.057Z,3.77
2019-03-10T02:02:40.168Z,4.17
2019-03-10T02:05:08.287Z,4.90
2019-03-10T02:07:36.408Z,4.30
2019-03-10T02:10:06.291Z,3.90
2019-03-10T02:12:34.401Z,3.70
2019-03-10T02:15:02.516Z,3.70
2019-03-10T02:17:30.720Z,3.97
2019-03-10T02:20:01.989Z,3.27
2019-03-10T02:22:30.350Z,2.80
2019-03-10T02:24:58.473Z,2.33
2019-03-10T02:27:26.582Z,2.53
2019-03-10T02:29:54.785Z,2.67
2019-03-10T02:32:22.923Z,2.77
2019-03-10T02:34:51.359Z,3.30
2019-03-10T02:37:19.875Z,3.57
2019-03-10T02:39:47.982Z,2.57
2019-03-10T02:42:16.128Z,2.43
2019-03-10T02:44:44.740Z,2.83
2019-03-10T02:47:12.848Z,3.27
2019-03-10T02:49:41.087Z,3.23
2019-03-10T02:52:09.287Z,3.90
2019-03-10T02:54:37.413Z,3.30
2019-03-10T02:57:05.915Z,4.00
2019-03-10T02:59:34.029Z,4.10
2019-03-10T03:02:02.249Z,5.30
2019-03-10T03:04:30.360Z,3.90
2019-03-10T03:06:58.468Z,3.57
2019-03-10T03:09:26.620Z,3.70
2019-03-10T03:11:54.723Z,3.20
2019-03-10T03:14:22.838Z,4.17
2019-03-10T03:16:52.898Z,3.43
2019-03-10T03:19:21.088Z,3.50
2019-03-10T03:21:49.577Z,3.23
2019-03-10T03:24:17.702Z,3.07
2019-03-10T03:26:45.815Z,3.27
2019-03-10T03:29:14.308Z,3.53
2019-03-10T03:31:42.422Z,3.30
2019-03-10T03:34:10.543Z,4.20
2019-03-10T03:36:38.690Z,4.40
2019-03-10T03:39:17.335Z,4.20
2019-03-10T03:41:48.460Z,3.20
2019-03-10T03:44:16.556Z,3.50
2019-03-10T03:46:44.673Z,3.00
2019-03-10T03:49:12.813Z,3.03
2019-03-10T03:51:40.937Z,2.93
2019-03-10T03:54:09.122Z,3.47
2019-03-10T03:56:37.353Z,3.20
2019-03-10T03:59:05.466Z,2.57
2019-03-10T04:01:35.294Z,3.40
2019-03-10T04:04:03.455Z,3.13
2019-03-10T04:06:31.724Z,3.27
2019-03-10T04:08:59.842Z,2.80
2019-03-10T04:11:27.981Z,2.67
2019-03-10T04:13:56.093Z,2.77
2019-03-10T04:16:24.269Z,3.23
2019-03-10T04:18:52.427Z,3.43
2019-03-10T04:21:20.621Z,3.33
2019-03-10T04:23:48.743Z,3.20
2019-03-10T04:26:16.878Z,2.87
2019-03-10T04:28:44.995Z,3.40
2019-03-10T04:31:13.120Z,3.00
2019-03-10T04:33:41.321Z,4.03
2019-03-10T04:36:09.436Z,3.57
2019-03-10T04:38:37.553Z,3.47
2019-03-10T04:41:05.695Z,3.30
2019-03-10T04:43:33.813Z,4.13
2019-03-10T04:46:04.788Z,2.93
2019-03-10T04:48:32.912Z,2.87
2019-03-10T04:51:01.037Z,3.23
2019-03-10T04:53:29.180Z,3.67
2019-03-10T04:56:01.948Z,4.50
2019-03-10T04:58:30.540Z,3.23
2019-03-10T05:00:59.675Z,3.53
2019-03-10T05:03:27.786Z,3.40
2019-03-10T05:05:55.976Z,3.87
2019-03-10T05:08:24.202Z,3.10
2019-03-10T05:10:52.333Z,3.40
2019-03-10T05:13:21.502Z,2.90
2019-03-10T05:15:49.704Z,3.00
2019-03-10T05:18:17.837Z,2.80
2019-03-10T05:20:45.990Z,4.13
2019-03-10T05:23:21.592Z,4.60
2019-03-10T05:25:49.746Z,9.70
2019-03-10T05:28:17.939Z,11.07
2019-03-10T05:30:46.061Z,11.40
2019-03-10T05:33:14.214Z,8.97
2019-03-10T05:35:42.326Z,7.13
2019-03-10T05:38:10.441Z,4.77
2019-03-10T05:40:38.586Z,3.60
2019-03-10T05:43:06.715Z,3.53
2019-03-10T05:45:34.822Z,3.50
2019-03-10T05:48:02.976Z,3.00
2019-03-10T05:50:31.089Z,2.80
2019-03-10T05:53:00.780Z,2.40
2019-03-10T05:55:29.103Z,2.40
2019-03-10T05:57:57.231Z,3.10
2019-03-10T06:00:25.467Z,3.00
2019-03-10T06:02:53.572Z,3.00
2019-03-10T06:05:21.675Z,3.17
2019-03-10T06:07:49.822Z,2.60
2019-03-10T06:10:17.935Z,3.63
2019-03-10T06:12:46.045Z,3.10
2019-03-10T06:15:14.193Z,3.37
2019-03-10T06:17:42.367Z,3.20
2019-03-10T06:20:10.561Z,3.67
2019-03-10T06:22:38.721Z,4.00
2019-03-10T06:25:09.610Z,3.60
2019-03-10T06:27:37.781Z,3.87
2019-03-10T06:30:08.281Z,3.83
2019-03-10T06:32:36.389Z,4.27
2019-03-10T06:35:05.467Z,3.53
2019-03-10T06:37:33.661Z,3.80
2019-03-10T06:40:01.766Z,4.07
2019-03-10T06:42:29.888Z,4.43
2019-03-10T06:44:58.013Z,3.90
2019-03-10T06:47:26.128Z,4.00
2019-03-10T06:49:54.256Z,3.70
2019-03-10T06:52:22.378Z,4.13
2019-03-10T06:54:52.433Z,4.90
2019-03-10T06:57:20.617Z,4.00
2019-03-10T06:59:50.062Z,5.13
2019-03-10T07:02:18.490Z,3.03
2019-03-10T07:04:46.605Z,2.40
2019-03-10T07:07:14.780Z,1.63
2019-03-10T07:09:42.916Z,1.33
2019-03-10T07:12:11.028Z,1.37
2019-03-10T07:14:39.140Z,1.43
2019-03-10T07:17:07.274Z,1.27
2019-03-10T07:19:35.384Z,0.80
2019-03-10T07:22:04.243Z,1.50
2019-03-10T07:24:32.520Z,0.90
2019-03-10T07:27:02.279Z,1.40
2019-03-10T07:29:32.484Z,1.00
2019-03-10T07:32:09.077Z,1.10
2019-03-10T07:34:39.009Z,0.93
2019-03-10T07:37:09.498Z,1.00
2019-03-10T07:39:48.299Z,0.90
2019-03-10T07:42:18.066Z,0.50
2019-03-10T07:44:50.951Z,0.77
2019-03-10T07:47:20.740Z,0.80
2019-03-10T07:49:50.489Z,0.60
2019-03-10T07:52:29.560Z,0.70
2019-03-10T07:55:18.178Z,0.50
2019-03-10T07:57:50.956Z,0.40
2019-03-10T08:00:32.852Z,0.40
2019-03-10T08:03:08.222Z,0.50
2019-03-10T08:05:54.428Z,0.53
2019-03-10T08:08:36.268Z,0.30
2019-03-10T08:11:09.028Z,0.50
2019-03-10T08:13:55.373Z,0.40
2019-03-10T08:16:31.317Z,0.40
2019-03-10T08:19:10.402Z,0.50
2019-03-10T08:21:49.491Z,0.50
2019-03-10T08:24:22.208Z,0.70
2019-03-10T08:27:10.315Z,0.70
2019-03-10T08:29:40.165Z,0.50
2019-03-10T08:32:24.737Z,0.63
2019-03-10T08:35:11.400Z,0.50
2019-03-10T08:37:57.488Z,0.90
2019-03-10T08:40:32.778Z,0.83
2019-03-10T08:43:11.897Z,0.80
2019-03-10T08:45:41.740Z,0.80
2019-03-10T08:48:11.487Z,1.23
2019-03-10T08:50:44.012Z,1.10
2019-03-10T08:53:16.656Z,1.13
2019-03-10T08:55:46.472Z,1.20
2019-03-10T08:58:18.888Z,1.30
2019-03-10T09:00:54.761Z,1.03
2019-03-10T09:03:34.018Z,1.57
2019-03-10T09:06:09.945Z,1.20
2019-03-10T09:08:45.866Z,1.30
2019-03-10T09:11:34.270Z,1.33
2019-03-10T09:14:16.605Z,0.90
2019-03-10T09:16:46.784Z,0.70
2019-03-10T09:19:22.363Z,1.00
2019-03-10T09:21:54.896Z,4.47
2019-03-10T09:24:41.494Z,1.10
2019-03-10T09:27:14.107Z,1.80
2019-03-10T09:29:55.973Z,1.20
2019-03-10T09:32:42.976Z,1.40
2019-03-10T09:35:15.882Z,1.63
2019-03-10T09:37:45.920Z,1.37
2019-03-10T09:40:32.150Z,1.20
2019-03-10T09:43:11.414Z,1.60
2019-03-10T09:45:53.009Z,1.30
2019-03-10T09:48:28.976Z,1.27
2019-03-10T09:51:07.520Z,2.30
2019-03-10T09:53:43.058Z,1.53
2019-03-10T09:56:18.699Z,2.00
2019-03-10T09:58:57.311Z,1.70
2019-03-10T10:01:27.087Z,1.80
2019-03-10T10:03:59.827Z,1.77
2019-03-10T10:06:35.499Z,1.70
2019-03-10T10:09:22.453Z,2.17
2019-03-10T10:11:55.147Z,1.97
2019-03-10T10:14:25.709Z,2.07
2019-03-10T10:16:56.110Z,2.10
2019-03-10T10:19:28.628Z,1.80
2019-03-10T10:21:58.590Z,2.50
2019-03-10T10:24:28.369Z,2.17
2019-03-10T10:26:58.129Z,2.20
2019-03-10T10:29:45.733Z,1.90
2019-03-10T10:32:18.545Z,1.83
2019-03-10T10:34:48.389Z,2.10
2019-03-10T10:37:23.912Z,2.30
2019-03-10T10:40:10.777Z,2.40
2019-03-10T10:42:59.370Z,2.17
2019-03-10T10:45:45.749Z,2.03
2019-03-10T10:48:15.508Z,1.53
2019-03-10T10:50:45.440Z,2.30
2019-03-10T10:53:21.631Z,1.97
2019-03-10T10:55:51.577Z,2.50
2019-03-10T10:58:21.325Z,2.60
2019-03-10T11:01:09.933Z,1.77
2019-03-10T11:03:51.548Z,2.40
2019-03-10T11:06:24.568Z,2.27
2019-03-10T11:09:09.715Z,1.60
2019-03-10T11:11:48.846Z,2.30
2019-03-10T11:14:34.457Z,2.57
2019-03-10T11:17:16.207Z,1.80
2019-03-10T11:20:04.245Z,2.33
2019-03-10T11:22:40.447Z,2.30
2019-03-10T11:25:22.620Z,2.70
2019-03-10T11:27:55.187Z,1.90
2019-03-10T11:30:25.457Z,2.47
2019-03-10T11:32:55.247Z,3.13
2019-03-10T11:35:43.314Z,2.50
2019-03-10T11:38:22.205Z,2.73
2019-03-10T11:40:55.307Z,2.50
2019-03-10T11:43:25.165Z,2.63
2019-03-10T11:46:10.376Z,2.60
2019-03-10T11:48:55.249Z,2.57
2019-03-10T11:51:39.925Z,2.73
2019-03-10T11:54:09.687Z,2.37
2019-03-10T11:56:42.039Z,2.53
2019-03-10T11:59:11.081Z,2.27
2019-03-10T12:01:41.001Z,2.27
2019-03-10T12:04:17.009Z,2.40
2019-03-10T12:07:04.266Z,2.53
2019-03-10T12:09:33.380Z,2.30
2019-03-10T12:12:04.757Z,2.37
2019-03-10T12:14:32.876Z,1.60
2019-03-10T12:17:01.042Z,2.53
2019-03-10T12:19:29.402Z,1.43
2019-03-10T12:21:57.560Z,2.40
2019-03-10T12:24:25.913Z,2.90
2019-03-10T12:26:55.086Z,1.97
2019-03-10T12:29:23.264Z,2.10
2019-03-10T12:31:51.391Z,2.63
2019-03-10T12:34:20.511Z,3.20
2019-03-10T12:36:48.822Z,3.50
2019-03-10T12:39:17.360Z,2.70
2019-03-10T12:41:45.653Z,2.60
2019-03-10T12:44:13.797Z,2.53
2019-03-10T12:46:43.334Z,2.57
2019-03-10T12:49:11.764Z,2.33
2019-03-10T12:51:39.872Z,2.50
2019-03-10T12:54:09.547Z,2.27
2019-03-10T12:56:37.813Z,3.03
2019-03-10T12:59:06.419Z,2.23
2019-03-10T13:01:34.626Z,2.80
2019-03-10T13:04:02.814Z,2.37
2019-03-10T13:06:31.253Z,2.60
2019-03-10T13:08:59.469Z,1.93
2019-03-10T13:11:27.580Z,2.23
2019-03-10T13:13:55.729Z,2.33
2019-03-10T13:16:23.837Z,2.67
2019-03-10T13:18:51.962Z,1.90
2019-03-10T13:21:21.823Z,2.00
2019-03-10T13:23:49.993Z,2.20
2019-03-10T13:26:18.141Z,1.40
2019-03-10T13:28:46.884Z,1.10
2019-03-10T13:31:15.434Z,1.00
2019-03-10T13:33:47.947Z,1.20
2019-03-10T13:36:16.040Z,0.70
2019-03-10T13:38:44.251Z,0.77
2019-03-10T13:41:12.359Z,0.57
2019-03-10T13:43:40.488Z,0.63
2019-03-10T13:46:08.664Z,0.50
2019-03-10T13:48:36.772Z,0.40
2019-03-10T13:51:04.977Z,0.60
2019-03-10T13:53:52.468Z,0.60
2019-03-10T13:56:20.572Z,0.50
2019-03-10T13:58:48.761Z,0.47
2019-03-10T14:01:16.890Z,0.40
2019-03-10T14:03:45.005Z,0.97
2019-03-10T14:06:13.131Z,1.00
2019-03-10T14:08:41.305Z,0.60
2019-03-10T14:11:09.430Z,0.60
2019-03-10T14:13:37.553Z,0.60
2019-03-10T14:16:05.687Z,0.63
2019-03-10T14:18:33.796Z,0.50
2019-03-10T14:21:01.948Z,0.70
2019-03-10T14:23:30.068Z,0.60
2019-03-10T14:25:58.201Z,0.60
2019-03-10T14:28:26.333Z,0.50
2019-03-10T14:30:54.567Z,0.60
2019-03-10T14:33:22.820Z,0.50
2019-03-10T14:35:51.377Z,0.80
2019-03-10T14:38:19.495Z,0.50
2019-03-10T14:40:47.671Z,0.50
2019-03-10T14:43:15.784Z,0.40
2019-03-10T14:45:43.916Z,0.70
2019-03-10T14:48:12.066Z,0.50
2019-03-10T14:50:40.192Z,0.40
2019-03-10T14:53:08.359Z,0.40
2019-03-10T14:55:36.478Z,0.53
2019-03-10T14:58:04.873Z,0.40
2019-03-10T15:00:33.009Z,0.60
2019-03-10T15:03:01.124Z,0.60
2019-03-10T15:05:29.232Z,0.77
2019-03-10T15:07:57.462Z,0.60
2019-03-10T15:10:25.649Z,0.50
2019-03-10T15:12:53.852Z,0.40
2019-03-10T15:15:23.141Z,0.70
2019-03-10T15:17:51.653Z,0.60
2019-03-10T15:20:21.640Z,0.50
2019-03-10T15:22:49.770Z,0.40
2019-03-10T15:25:18.653Z,0.30
2019-03-10T15:27:46.949Z,0.33
2019-03-10T15:30:16.603Z,0.47
2019-03-10T15:32:44.796Z,0.70
2019-03-10T15:35:13.272Z,0.80
2019-03-10T15:37:41.400Z,0.60
2019-03-10T15:40:13.272Z,0.50
2019-03-10T15:42:41.500Z,0.30
2019-03-10T15:45:10.788Z,0.50
2019-03-10T15:47:39.159Z,0.60
2019-03-10T15:50:08.833Z,0.50
2019-03-10T15:52:37.032Z,0.50
2019-03-10T15:55:05.234Z,0.50
2019-03-10T15:57:33.340Z,0.60
2019-03-10T16:00:01.569Z,0.40
2019-03-10T16:02:29.695Z,0.60
2019-03-10T16:04:57.885Z,0.60
2019-03-10T16:07:25.989Z,0.57
2019-03-10T16:09:54.111Z,0.60
2019-03-10T16:12:22.227Z,0.90
2019-03-10T16:14:50.351Z,0.80
2019-03-10T16:17:18.472Z,1.10
2019-03-10T16:19:46.657Z,0.87
2019-03-10T16:22:14.764Z,0.83
2019-03-10T16:24:42.903Z,0.93
2019-03-10T16:27:11.024Z,1.20
2019-03-10T16:29:39.155Z,0.83
2019-03-10T16:32:07.284Z,1.53
2019-03-10T16:34:35.485Z,1.17
2019-03-10T16:37:03.768Z,1.10
2019-03-10T16:39:31.898Z,1.10
2019-03-10T16:42:00.039Z,0.80
2019-03-10T16:44:28.224Z,1.10
2019-03-10T16:46:56.602Z,1.57
2019-03-10T16:49:24.731Z,1.23
2019-03-10T16:51:52.840Z,1.17
2019-03-10T16:54:20.986Z,1.17
2019-03-10T16:56:49.100Z,1.10
2019-03-10T16:59:17.216Z,1.13
2019-03-10T17:01:45.332Z,1.10
2019-03-10T17:04:13.436Z,1.40
2019-03-10T17:06:41.573Z,1.03
2019-03-10T17:09:16.730Z,1.60
2019-03-10T17:11:44.863Z,1.30
2019-03-10T17:14:13.107Z,1.10
2019-03-10T17:16:41.252Z,1.20
2019-03-10T17:19:09.720Z,1.50
2019-03-10T17:21:38.036Z,1.13
2019-03-10T17:24:06.158Z,1.10
2019-03-10T17:26:34.442Z,1.53
2019-03-10T17:29:02.552Z,1.07
2019-03-10T17:31:30.689Z,1.30
2019-03-10T17:33:58.865Z,1.00
2019-03-10T17:36:27.005Z,1.10
2019-03-10T17:38:55.180Z,1.30
2019-03-10T17:41:23.375Z,1.00
2019-03-10T17:43:51.481Z,1.20
2019-03-10T17:46:19.696Z,1.30
2019-03-10T17:48:47.879Z,1.00
2019-03-10T17:51:16.002Z,1.40
2019-03-10T17:53:44.112Z,1.07
2019-03-10T17:56:12.240Z,1.30
2019-03-10T17:58:40.393Z,1.50
2019-03-10T18:01:08.559Z,1.40
2019-03-10T18:03:36.666Z,1.30
2019-03-10T18:06:04.933Z,1.57
2019-03-10T18:08:33.069Z,1.53
2019-03-10T18:11:01.255Z,1.53
2019-03-10T18:13:29.392Z,1.70
2019-03-10T18:15:57.496Z,1.23
2019-03-10T18:18:25.628Z,1.33
2019-03-10T18:20:53.739Z,1.20
2019-03-10T18:23:22.020Z,0.87
2019-03-10T18:25:50.128Z,0.90
2019-03-10T18:28:18.252Z,1.10
2019-03-10T18:30:46.360Z,0.77
2019-03-10T18:33:14.556Z,0.90
2019-03-10T18:35:42.661Z,0.90
2019-03-10T18:38:10.793Z,0.80
2019-03-10T18:40:38.907Z,0.60
2019-03-10T18:43:07.032Z,0.80
2019-03-10T18:45:35.260Z,0.93
2019-03-10T18:48:03.369Z,0.73
2019-03-10T18:50:31.523Z,0.93
2019-03-10T18:52:59.639Z,0.70
2019-03-10T18:55:27.768Z,0.50
2019-03-10T18:58:01.847Z,0.90
2019-03-10T19:00:31.163Z,0.87
2019-03-10T19:02:59.266Z,1.40
2019-03-10T19:05:27.463Z,0.80
2019-03-10T19:07:55.962Z,0.87
2019-03-10T19:10:24.097Z,0.80
2019-03-10T19:12:52.291Z,0.60
2019-03-10T19:15:21.130Z,1.10
2019-03-10T19:17:49.329Z,0.73
2019-03-10T19:20:17.533Z,1.03
2019-03-10T19:22:45.709Z,1.50
2019-03-10T19:25:16.907Z,0.80
2019-03-10T19:27:45.083Z,1.07
2019-03-10T19:30:19.687Z,0.90
2019-03-10T19:32:47.961Z,1.20
2019-03-10T19:35:16.159Z,1.30
2019-03-10T19:37:44.336Z,1.23
2019-03-10T19:40:13.427Z,0.90
2019-03-10T19:42:41.539Z,1.10
2019-03-10T19:45:11.217Z,1.50
2019-03-10T19:47:39.331Z,0.70
2019-03-10T19:50:11.601Z,1.20
2019-03-10T19:52:40.973Z,1.07
2019-03-10T19:55:10.247Z,1.47
2019-03-10T19:57:38.418Z,1.20
2019-03-10T20:00:11.398Z,1.20
2019-03-10T20:02:39.711Z,1.23
2019-03-10T20:05:08.672Z,1.00
2019-03-10T20:07:36.809Z,1.20
2019-03-10T20:10:06.787Z,1.37
2019-03-10T20:12:34.921Z,1.17
2019-03-10T20:15:03.495Z,1.10
2019-03-10T20:17:31.624Z,1.53
2019-03-10T20:19:59.741Z,1.03
2019-03-10T20:22:27.976Z,1.40
2019-03-10T20:24:56.088Z,1.00
2019-03-10T20:27:24.216Z,1.10
2019-03-10T20:29:52.328Z,1.33
2019-03-10T20:32:20.460Z,1.30
2019-03-10T20:34:48.572Z,1.60
2019-03-10T20:37:16.708Z,1.60
2019-03-10T20:39:44.816Z,1.57
2019-03-10T20:42:12.940Z,1.30
2019-03-10T20:44:41.096Z,1.40
2019-03-10T20:47:09.292Z,1.30
2019-03-10T20:49:37.409Z,1.40
2019-03-10T20:52:05.541Z,1.40
2019-03-10T20:54:33.653Z,1.30
2019-03-10T20:57:01.773Z,1.70
2019-03-10T20:59:29.983Z,1.67
2019-03-10T21:01:58.254Z,1.63
2019-03-10T21:04:26.757Z,1.80
2019-03-10T21:06:54.875Z,1.77
2019-03-10T21:09:23.020Z,1.73
2019-03-10T21:11:51.281Z,1.23
2019-03-10T21:14:19.473Z,1.17
2019-03-10T21:16:47.661Z,1.30
2019-03-10T21:19:15.792Z,1.50
2019-03-10T21:21:43.912Z,1.47
2019-03-10T21:24:12.053Z,1.67
2019-03-10T21:26:40.163Z,1.30
2019-03-10T21:29:08.292Z,1.00
2019-03-10T21:31:36.415Z,1.23
2019-03-10T21:34:04.608Z,1.13
2019-03-10T21:36:32.725Z,1.37
2019-03-10T21:39:00.860Z,1.20
2019-03-10T21:41:28.984Z,1.70
2019-03-10T21:43:57.262Z,0.97
2019-03-10T21:46:25.536Z,1.90
2019-03-10T21:48:53.684Z,1.33
2019-03-10T21:51:21.849Z,1.43
2019-03-10T21:53:49.952Z,1.50
2019-03-10T21:56:19.047Z,1.30
2019-03-10T21:58:47.165Z,1.60
2019-03-10T22:01:15.370Z,1.40
2019-03-10T22:03:43.502Z,1.43
2019-03-10T22:06:11.611Z,1.23
2019-03-10T22:08:39.725Z,1.53
2019-03-10T22:11:07.865Z,1.90
2019-03-10T22:13:46.110Z,1.40
2019-03-10T22:16:05.976Z,1.40
2019-03-10T22:18:34.105Z,1.17
2019-03-10T22:21:02.235Z,1.60
2019-03-10T22:23:30.344Z,1.40
2019-03-10T22:25:58.475Z,1.63
2019-03-10T22:28:26.592Z,1.27
2019-03-10T22:30:54.722Z,1.20
2019-03-10T22:33:22.839Z,1.60
2019-03-10T22:35:50.999Z,1.73
2019-03-10T22:38:19.250Z,1.57
2019-03-10T22:40:47.387Z,1.30
2019-03-10T22:43:15.508Z,1.67
2019-03-10T22:45:43.657Z,1.57
2019-03-10T22:48:11.789Z,1.00
2019-03-10T22:50:39.942Z,2.13
2019-03-10T22:53:08.076Z,2.10
2019-03-10T22:55:36.216Z,2.23
2019-03-10T22:58:04.352Z,1.67
2019-03-10T23:00:46.734Z,1.70
2019-03-10T23:03:14.923Z,2.23
2019-03-10T23:05:43.069Z,1.93
2019-03-10T23:08:11.183Z,2.10
2019-03-10T23:10:39.339Z,2.40
2019-03-10T23:13:07.468Z,2.50
2019-03-10T23:15:35.584Z,1.80
2019-03-10T23:18:03.816Z,1.83
2019-03-10T23:20:31.922Z,2.00
2019-03-10T23:23:00.085Z,2.23
2019-03-10T23:25:28.257Z,1.97
2019-03-10T23:27:56.399Z,1.80
2019-03-10T23:30:24.526Z,2.30
2019-03-10T23:32:52.651Z,2.30
2019-03-10T23:35:20.762Z,1.90
2019-03-10T23:37:48.910Z,2.20
2019-03-10T23:40:17.593Z,2.37
2019-03-10T23:42:45.726Z,2.70
2019-03-10T23:45:17.243Z,2.33
2019-03-10T23:47:45.433Z,2.53
2019-03-10T23:50:14.406Z,2.87
2019-03-10T23:52:42.545Z,2.70
2019-03-10T23:55:13.808Z,1.77
2019-03-10T23:57:42.004Z,1.47
